createdAt,value
2018-11-11T00:01:46.622Z,43.97
2018-11-11T00:04:13.787Z,46.83
2018-11-11T00:06:40.972Z,45.60
2018-11-11T00:09:08.885Z,50.23
2018-11-11T00:11:36.175Z,42.77
2018-11-11T00:14:03.367Z,43.60
2018-11-11T00:16:30.512Z,48.17
2018-11-11T00:18:57.654Z,44.53
2018-11-11T00:21:24.811Z,48.33
2018-11-11T00:23:51.998Z,47.40
2018-11-11T00:26:19.169Z,45.40
2018-11-11T00:28:46.406Z,45.17
2018-11-11T00:31:13.505Z,47.70
2018-11-11T00:33:40.654Z,44.33
2018-11-11T00:36:07.813Z,46.43
2018-11-11T00:38:34.968Z,46.10
2018-11-11T00:41:02.119Z,53.60
2018-11-11T00:43:29.273Z,52.67
2018-11-11T00:45:56.417Z,46.00
2018-11-11T00:48:23.580Z,51.27
2018-11-11T00:50:50.717Z,47.53
2018-11-11T00:53:19.112Z,48.30
2018-11-11T00:55:46.625Z,56.23
2018-11-11T00:58:13.772Z,54.10
2018-11-11T01:00:41.652Z,52.40
2018-11-11T01:03:08.848Z,58.13
2018-11-11T01:05:36.070Z,52.50
2018-11-11T01:08:03.429Z,56.77
2018-11-11T01:10:30.581Z,54.73
2018-11-11T01:12:57.759Z,53.10
2018-11-11T01:15:24.904Z,59.73
2018-11-11T01:17:52.053Z,56.53
2018-11-11T01:20:19.208Z,52.83
2018-11-11T01:22:46.664Z,53.60
2018-11-11T01:25:14.928Z,52.97
2018-11-11T01:27:42.191Z,61.83
2018-11-11T01:30:09.437Z,61.07
2018-11-11T01:32:36.893Z,56.77
2018-11-11T01:35:05.857Z,57.97
2018-11-11T01:37:33.025Z,62.30
2018-11-11T01:40:00.204Z,55.67
2018-11-11T01:42:27.391Z,56.70
2018-11-11T01:44:54.544Z,53.87
2018-11-11T01:47:21.732Z,53.13
2018-11-11T01:49:48.895Z,63.67
2018-11-11T01:52:16.041Z,54.03
2018-11-11T01:54:43.211Z,59.20
2018-11-11T01:57:10.360Z,62.97
2018-11-11T01:59:37.524Z,58.90
2018-11-11T02:02:04.714Z,62.27
2018-11-11T02:04:31.867Z,62.73
2018-11-11T02:06:59.069Z,61.80
2018-11-11T02:09:26.211Z,58.77
2018-11-11T02:11:53.373Z,55.50
2018-11-11T02:14:20.556Z,61.67
2018-11-11T02:16:47.716Z,63.60
2018-11-11T02:19:15.532Z,62.57
2018-11-11T02:21:42.724Z,59.57
2018-11-11T02:24:09.875Z,72.37
2018-11-11T02:26:37.016Z,71.63
2018-11-11T02:29:04.464Z,63.67
2018-11-11T02:31:31.618Z,59.10
2018-11-11T02:33:58.777Z,65.23
2018-11-11T02:36:25.920Z,59.53
2018-11-11T02:38:53.085Z,61.77
2018-11-11T02:41:20.253Z,61.70
2018-11-11T02:43:47.430Z,60.90
2018-11-11T02:46:14.590Z,59.57
2018-11-11T02:48:41.756Z,68.07
2018-11-11T02:51:08.900Z,58.37
2018-11-11T02:53:36.246Z,69.47
2018-11-11T02:56:03.416Z,59.87
2018-11-11T02:58:30.556Z,61.77
2018-11-11T03:00:57.742Z,64.60
2018-11-11T03:03:24.904Z,61.83
2018-11-11T03:05:52.057Z,60.87
2018-11-11T03:08:19.239Z,63.83
2018-11-11T03:10:46.407Z,58.20
2018-11-11T03:13:13.560Z,60.37
2018-11-11T03:15:40.722Z,52.33
2018-11-11T03:18:07.877Z,58.47
2018-11-11T03:20:35.080Z,56.43
2018-11-11T03:23:02.221Z,60.13
2018-11-11T03:25:29.384Z,69.67
2018-11-11T03:27:56.520Z,67.57
2018-11-11T03:30:23.689Z,64.17
2018-11-11T03:32:50.864Z,67.43
2018-11-11T03:35:18.029Z,76.57
2018-11-11T03:37:46.005Z,75.60
2018-11-11T03:40:16.436Z,70.80
2018-11-11T03:42:43.780Z,76.17
2018-11-11T03:45:12.327Z,65.13
2018-11-11T03:47:39.783Z,70.93
2018-11-11T03:50:07.648Z,70.13
2018-11-11T03:52:34.800Z,74.57
2018-11-11T03:55:01.965Z,74.53
2018-11-11T03:57:29.108Z,71.73
2018-11-11T03:59:56.264Z,72.93
2018-11-11T04:02:23.428Z,70.60
2018-11-11T04:04:50.568Z,71.13
2018-11-11T04:07:17.717Z,79.90
2018-11-11T04:09:44.861Z,73.50
2018-11-11T04:12:12.026Z,76.77
2018-11-11T04:14:39.152Z,70.17
2018-11-11T04:17:06.291Z,66.67
2018-11-11T04:19:33.446Z,75.30
2018-11-11T04:22:05.239Z,71.00
2018-11-11T04:24:32.381Z,68.77
2018-11-11T04:26:59.571Z,69.60
2018-11-11T04:29:26.758Z,60.90
2018-11-11T04:31:53.996Z,69.87
2018-11-11T04:34:21.166Z,68.77
2018-11-11T04:36:48.349Z,64.00
2018-11-11T04:39:15.521Z,71.77
2018-11-11T04:41:42.670Z,72.30
2018-11-11T04:44:09.858Z,64.93
2018-11-11T04:46:37.135Z,67.40
2018-11-11T04:49:04.325Z,68.60
2018-11-11T04:51:31.477Z,71.80
2018-11-11T04:53:58.667Z,64.43
2018-11-11T04:56:25.820Z,69.23
2018-11-11T04:58:52.993Z,67.70
2018-11-11T05:01:20.247Z,64.63
2018-11-11T05:03:47.354Z,61.43
2018-11-11T05:06:14.523Z,59.77
2018-11-11T05:08:41.676Z,58.77
2018-11-11T05:11:08.824Z,58.70
2018-11-11T05:13:35.999Z,63.27
2018-11-11T05:16:03.167Z,60.60
2018-11-11T05:18:30.337Z,54.33
2018-11-11T05:20:57.492Z,61.37
2018-11-11T05:23:24.636Z,62.00
2018-11-11T05:25:51.784Z,56.27
2018-11-11T05:28:18.954Z,63.63
2018-11-11T05:30:46.127Z,61.73
2018-11-11T05:33:13.305Z,62.70
2018-11-11T05:35:40.460Z,64.13
2018-11-11T05:38:07.611Z,69.70
2018-11-11T05:40:34.830Z,63.13
2018-11-11T05:43:01.992Z,66.63
2018-11-11T05:45:29.153Z,64.90
2018-11-11T05:47:56.281Z,61.67
2018-11-11T05:50:23.461Z,70.50
2018-11-11T05:52:50.617Z,61.37
2018-11-11T05:55:17.768Z,64.50
2018-11-11T05:57:44.913Z,59.30
2018-11-11T06:00:13.349Z,68.07
2018-11-11T06:02:40.504Z,70.80
2018-11-11T06:05:08.528Z,70.90
2018-11-11T06:07:35.824Z,82.00
2018-11-11T06:10:03.400Z,77.57
2018-11-11T06:12:30.541Z,75.40
2018-11-11T06:14:57.696Z,74.10
2018-11-11T06:17:24.865Z,80.73
2018-11-11T06:19:52.025Z,86.30
2018-11-11T06:22:19.171Z,82.07
2018-11-11T06:24:46.325Z,104.00
2018-11-11T06:27:13.705Z,94.43
2018-11-11T06:29:40.872Z,100.40
2018-11-11T06:32:08.060Z,101.00
2018-11-11T06:34:35.401Z,100.03
2018-11-11T06:37:02.556Z,107.40
2018-11-11T06:39:29.760Z,91.43
2018-11-11T06:41:56.906Z,101.93
2018-11-11T06:44:24.101Z,103.87
2018-11-11T06:46:51.199Z,92.23
2018-11-11T06:49:18.455Z,80.93
2018-11-11T06:51:45.604Z,93.00
2018-11-11T06:54:12.838Z,92.90
2018-11-11T06:56:40.001Z,102.93
2018-11-11T06:59:07.204Z,92.07
2018-11-11T07:01:34.544Z,101.47
2018-11-11T07:04:02.512Z,95.47
2018-11-11T07:06:30.111Z,87.00
2018-11-11T07:08:57.531Z,77.17
2018-11-11T07:11:24.692Z,74.20
2018-11-11T07:13:51.960Z,66.17
2018-11-11T07:16:19.101Z,59.90
2018-11-11T07:18:46.741Z,52.20
2018-11-11T07:21:14.208Z,54.97
2018-11-11T07:23:41.397Z,48.13
2018-11-11T07:26:08.544Z,47.10
2018-11-11T07:28:35.696Z,49.60
2018-11-11T07:31:02.897Z,44.73
2018-11-11T07:33:30.049Z,39.83
2018-11-11T07:35:57.941Z,37.70
2018-11-11T07:38:25.094Z,41.53
2018-11-11T07:40:53.049Z,40.40
2018-11-11T07:43:20.185Z,47.27
2018-11-11T07:45:47.961Z,39.87
2018-11-11T07:48:15.110Z,42.10
2018-11-11T07:50:42.256Z,40.47
2018-11-11T07:53:09.474Z,38.20
2018-11-11T07:55:36.620Z,36.33
2018-11-11T07:58:03.804Z,39.67
2018-11-11T08:00:30.976Z,37.63
2018-11-11T08:02:58.117Z,35.47
2018-11-11T08:05:25.261Z,30.07
2018-11-11T08:07:52.409Z,33.97
2018-11-11T08:10:25.229Z,33.37
2018-11-11T08:12:52.388Z,30.97
2018-11-11T08:15:19.977Z,29.40
2018-11-11T08:17:47.136Z,34.47
2018-11-11T08:20:14.268Z,29.97
2018-11-11T08:22:41.437Z,30.20
2018-11-11T08:25:08.562Z,30.60
2018-11-11T08:27:35.723Z,30.53
2018-11-11T08:30:02.912Z,29.10
2018-11-11T08:32:30.076Z,32.93
2018-11-11T08:34:57.260Z,31.73
2018-11-11T08:37:24.392Z,30.03
2018-11-11T08:39:51.541Z,29.00
2018-11-11T08:42:18.712Z,30.30
2018-11-11T08:44:45.863Z,31.53
2018-11-11T08:47:13.053Z,26.27
2018-11-11T08:49:40.232Z,23.30
2018-11-11T08:52:07.512Z,28.57
2018-11-11T08:54:34.652Z,24.07
2018-11-11T08:57:01.822Z,31.83
2018-11-11T08:59:28.983Z,33.50
2018-11-11T09:01:56.153Z,24.23
2018-11-11T09:04:23.298Z,40.20
2018-11-11T09:06:50.441Z,30.17
2018-11-11T09:09:17.616Z,22.73
2018-11-11T09:11:44.767Z,22.87
2018-11-11T09:14:11.954Z,24.33
2018-11-11T09:16:39.100Z,22.07
2018-11-11T09:19:06.281Z,19.63
2018-11-11T09:21:33.520Z,20.50
2018-11-11T09:24:00.732Z,22.77
2018-11-11T09:26:27.953Z,23.77
2018-11-11T09:28:55.111Z,23.00
2018-11-11T09:31:22.264Z,19.27
2018-11-11T09:33:49.436Z,17.23
2018-11-11T09:36:16.560Z,20.50
2018-11-11T09:41:52.352Z,17.57
2018-11-11T09:44:19.522Z,16.80
2018-11-11T09:46:46.681Z,17.50
2018-11-11T09:49:13.834Z,16.90
2018-11-11T09:51:41.058Z,15.87
2018-11-11T09:54:08.248Z,16.35
2018-11-11T09:56:35.721Z,17.27
2018-11-11T09:59:03.041Z,14.60
2018-11-11T10:01:30.405Z,16.97
2018-11-11T10:04:02.161Z,14.33
2018-11-11T10:07:35.832Z,13.28
2018-11-11T10:10:11.384Z,13.28
2018-11-11T10:12:47.227Z,19.65
2018-11-11T10:15:22.599Z,11.65
2018-11-11T10:19:58.493Z,12.60
2018-11-11T10:23:32.033Z,18.35
2018-11-11T10:26:06.076Z,16.73
2018-11-11T10:28:41.096Z,14.00
2018-11-11T10:31:15.735Z,14.05
2018-11-11T10:33:51.992Z,18.17
2018-11-11T10:36:59.798Z,14.68
2018-11-11T10:39:30.111Z,10.78
2018-11-11T10:42:18.535Z,10.65
2018-11-11T10:45:10.286Z,9.50
2018-11-11T10:48:09.823Z,9.83
2018-11-11T10:50:41.540Z,9.65
2018-11-11T10:53:08.724Z,10.32
2018-11-11T10:55:35.900Z,9.13
2018-11-11T10:58:03.136Z,11.65
2018-11-11T11:00:36.154Z,9.88
2018-11-11T11:03:07.995Z,9.85
2018-11-11T11:05:35.424Z,8.90
2018-11-11T11:08:02.649Z,10.58
2018-11-11T11:10:29.834Z,8.60
2018-11-11T11:12:56.996Z,10.70
2018-11-11T11:15:24.179Z,11.05
2018-11-11T11:17:51.384Z,10.65
2018-11-11T11:20:18.561Z,9.28
2018-11-11T11:22:45.769Z,10.93
2018-11-11T11:25:12.905Z,9.45
2018-11-11T11:27:40.920Z,9.43
2018-11-11T11:30:09.634Z,10.98
2018-11-11T11:32:36.813Z,9.85
2018-11-11T11:35:04.444Z,10.75
2018-11-11T11:37:31.685Z,11.18
2018-11-11T11:39:58.932Z,9.55
2018-11-11T11:42:26.172Z,8.90
2018-11-11T11:44:53.329Z,11.10
2018-11-11T11:47:20.645Z,11.38
2018-11-11T11:49:47.802Z,9.75
2018-11-11T11:52:15.017Z,9.18
2018-11-11T11:54:42.120Z,9.03
2018-11-11T11:57:09.293Z,8.70
2018-11-11T11:59:36.453Z,11.50
2018-11-11T12:02:04.112Z,9.38
2018-11-11T12:04:31.298Z,8.93
2018-11-11T12:06:58.476Z,9.83
2018-11-11T12:09:25.697Z,7.83
2018-11-11T12:11:52.833Z,9.15
2018-11-11T12:14:20.013Z,7.42
2018-11-11T12:16:47.347Z,7.60
2018-11-11T12:19:14.449Z,7.42
2018-11-11T12:21:41.620Z,7.60
2018-11-11T12:24:08.767Z,7.72
2018-11-11T12:26:35.960Z,7.53
2018-11-11T12:29:03.153Z,7.37
2018-11-11T12:31:30.313Z,7.05
2018-11-11T12:33:57.549Z,6.78
2018-11-11T12:36:24.756Z,7.20
2018-11-11T12:38:51.982Z,9.75
2018-11-11T12:41:19.155Z,9.33
2018-11-11T12:43:46.407Z,8.30
2018-11-11T12:46:13.605Z,8.58
2018-11-11T12:48:40.788Z,6.53
2018-11-11T12:51:07.943Z,6.95
2018-11-11T12:53:35.132Z,9.90
2018-11-11T12:56:02.329Z,6.62
2018-11-11T12:58:29.506Z,8.15
2018-11-11T13:00:56.713Z,6.45
2018-11-11T13:03:23.900Z,6.85
2018-11-11T13:05:51.100Z,5.25
2018-11-11T13:08:18.264Z,4.35
2018-11-11T13:10:45.453Z,8.58
2018-11-11T13:13:12.593Z,7.08
2018-11-11T13:15:39.772Z,6.95
2018-11-11T13:18:06.979Z,8.58
2018-11-11T13:20:34.161Z,8.35
2018-11-11T13:23:01.574Z,7.62
2018-11-11T13:25:28.577Z,8.43
2018-11-11T13:27:55.767Z,10.53
2018-11-11T13:30:22.938Z,11.25
2018-11-11T13:32:50.108Z,8.75
2018-11-11T13:35:17.258Z,10.50
2018-11-11T13:37:44.489Z,9.00
2018-11-11T13:40:13.460Z,9.60
2018-11-11T13:42:40.804Z,9.68
2018-11-11T13:45:09.190Z,10.95
2018-11-11T13:47:36.358Z,15.95
2018-11-11T13:50:03.989Z,10.82
2018-11-11T13:52:31.350Z,11.00
2018-11-11T13:54:58.531Z,10.93
2018-11-11T13:57:25.696Z,11.28
2018-11-11T13:59:52.859Z,11.22
2018-11-11T14:02:20.311Z,10.13
2018-11-11T14:04:47.616Z,11.88
2018-11-11T14:07:14.853Z,11.25
2018-11-11T14:09:42.041Z,11.35
2018-11-11T14:12:09.297Z,11.45
2018-11-11T14:14:36.463Z,11.53
2018-11-11T14:17:03.718Z,12.85
2018-11-11T14:19:31.121Z,11.53
2018-11-11T14:21:58.283Z,11.45
2018-11-11T14:24:25.458Z,14.85
2018-11-11T14:26:52.682Z,14.23
2018-11-11T14:29:19.885Z,14.85
2018-11-11T14:31:47.057Z,13.43
2018-11-11T14:34:14.229Z,15.43
2018-11-11T14:36:41.425Z,14.83
2018-11-11T14:39:09.644Z,17.05
2018-11-11T14:41:36.834Z,13.40
2018-11-11T14:44:04.313Z,16.77
2018-11-11T14:46:31.493Z,14.65
2018-11-11T14:48:58.691Z,18.90
2018-11-11T14:51:25.856Z,18.73
2018-11-11T14:53:53.024Z,15.60
2018-11-11T14:56:20.200Z,15.67
2018-11-11T14:58:47.494Z,17.57
2018-11-11T15:01:14.643Z,16.80
2018-11-11T15:03:41.783Z,15.70
2018-11-11T15:06:09.001Z,16.90
2018-11-11T15:08:36.159Z,18.73
2018-11-11T15:11:03.504Z,18.30
2018-11-11T15:13:30.686Z,16.53
2018-11-11T15:15:57.923Z,15.63
2018-11-11T15:18:25.074Z,17.93
2018-11-11T15:20:52.614Z,18.37
2018-11-11T15:23:19.422Z,22.17
2018-11-11T15:25:46.585Z,24.00
2018-11-11T15:28:13.762Z,22.07
2018-11-11T15:30:40.991Z,19.80
2018-11-11T15:33:08.277Z,18.10
2018-11-11T15:35:35.531Z,16.17
2018-11-11T15:38:02.714Z,19.87
2018-11-11T15:40:33.181Z,18.90
2018-11-11T15:43:00.467Z,19.60
2018-11-11T15:45:28.911Z,30.40
2018-11-11T15:47:56.172Z,24.43
2018-11-11T15:50:24.653Z,17.50
2018-11-11T15:52:53.252Z,18.47
2018-11-11T15:55:21.600Z,16.60
2018-11-11T15:57:48.813Z,16.50
2018-11-11T16:00:17.460Z,20.57
2018-11-11T16:02:45.124Z,15.63
2018-11-11T16:05:13.001Z,19.50
2018-11-11T16:07:41.069Z,19.67
2018-11-11T16:10:10.053Z,19.17
2018-11-11T16:12:37.393Z,17.67
2018-11-11T16:15:07.626Z,17.80
2018-11-11T16:17:34.807Z,21.73
2018-11-11T16:20:02.065Z,21.40
2018-11-11T16:22:29.217Z,22.80
2018-11-11T16:24:56.439Z,20.10
2018-11-11T16:27:23.625Z,21.93
2018-11-11T16:29:50.858Z,18.87
2018-11-11T16:32:18.074Z,19.00
2018-11-11T16:34:45.241Z,20.27
2018-11-11T16:37:13.322Z,25.70
2018-11-11T16:39:40.661Z,27.00
2018-11-11T16:42:07.781Z,23.33
2018-11-11T16:44:35.015Z,23.43
2018-11-11T16:47:02.200Z,27.53
2018-11-11T16:49:29.410Z,33.30
2018-11-11T16:51:56.597Z,21.97
2018-11-11T16:54:23.812Z,20.70
2018-11-11T16:56:50.997Z,17.13
2018-11-11T16:59:18.218Z,19.60
2018-11-11T17:01:45.425Z,19.57
2018-11-11T17:04:12.682Z,16.80
2018-11-11T17:06:39.832Z,19.00
2018-11-11T17:09:09.514Z,19.07
2018-11-11T17:11:36.723Z,17.23
2018-11-11T17:14:03.971Z,21.47
2018-11-11T17:16:31.204Z,21.27
2018-11-11T17:18:58.390Z,22.13
2018-11-11T17:21:25.603Z,19.87
2018-11-11T17:23:52.750Z,21.90
2018-11-11T17:26:19.948Z,19.33
2018-11-11T17:28:47.173Z,22.10
2018-11-11T17:31:14.330Z,21.60
2018-11-11T17:33:41.521Z,23.10
2018-11-11T17:36:08.701Z,22.70
2018-11-11T17:38:35.957Z,19.97
2018-11-11T17:41:03.137Z,23.93
2018-11-11T17:43:30.308Z,22.30
2018-11-11T17:45:57.501Z,20.63
2018-11-11T17:48:24.697Z,23.70
2018-11-11T17:50:51.829Z,23.80
2018-11-11T17:53:19.110Z,21.27
2018-11-11T17:55:46.348Z,20.63
2018-11-11T17:58:13.533Z,21.73
2018-11-11T18:00:40.740Z,22.10
2018-11-11T18:03:07.932Z,20.63
2018-11-11T18:05:35.173Z,21.77
2018-11-11T18:08:02.402Z,22.53
2018-11-11T18:10:29.703Z,23.23
2018-11-11T18:12:56.868Z,21.93
2018-11-11T18:15:25.516Z,21.17
2018-11-11T18:17:52.704Z,20.27
2018-11-11T18:20:21.260Z,23.63
2018-11-11T18:22:49.200Z,23.73
2018-11-11T18:25:16.560Z,18.73
2018-11-11T18:27:43.928Z,22.93
2018-11-11T18:30:17.480Z,21.90
2018-11-11T18:32:45.017Z,24.90
2018-11-11T18:35:13.467Z,23.93
2018-11-11T18:37:40.707Z,22.47
2018-11-11T18:40:09.406Z,22.63
2018-11-11T18:42:36.656Z,25.47
2018-11-11T18:45:04.580Z,22.60
2018-11-11T18:47:31.825Z,22.97
2018-11-11T18:49:58.955Z,20.17
2018-11-11T18:52:26.137Z,21.00
2018-11-11T18:54:53.329Z,21.10
2018-11-11T18:57:20.701Z,24.47
2018-11-11T18:59:47.743Z,22.00
2018-11-11T19:02:14.907Z,24.83
2018-11-11T19:04:42.130Z,22.40
2018-11-11T19:07:09.345Z,24.40
2018-11-11T19:09:36.526Z,24.07
2018-11-11T19:12:04.149Z,35.10
2018-11-11T19:14:31.353Z,24.50
2018-11-11T19:16:58.521Z,27.87
2018-11-11T19:19:25.704Z,26.60
2018-11-11T19:21:52.905Z,28.23
2018-11-11T19:24:20.165Z,24.87
2018-11-11T19:26:47.311Z,27.30
2018-11-11T19:29:14.489Z,25.60
2018-11-11T19:31:41.885Z,27.50
2018-11-11T19:34:09.080Z,24.53
2018-11-11T19:36:36.285Z,29.47
2018-11-11T19:39:07.034Z,27.67
2018-11-11T19:41:34.364Z,26.27
2018-11-11T19:44:01.542Z,31.53
2018-11-11T19:46:28.727Z,28.80
2018-11-11T19:48:55.932Z,32.13
2018-11-11T19:51:23.125Z,25.70
2018-11-11T19:53:50.335Z,30.60
2018-11-11T19:56:17.510Z,27.57
2018-11-11T19:58:44.693Z,29.40
2018-11-11T20:01:11.906Z,25.63
2018-11-11T20:03:39.114Z,30.63
2018-11-11T20:06:06.316Z,30.07
2018-11-11T20:08:33.538Z,26.70
2018-11-11T20:11:00.725Z,25.83
2018-11-11T20:13:27.940Z,29.90
2018-11-11T20:15:55.336Z,32.97
2018-11-11T20:18:22.541Z,37.03
2018-11-11T20:20:50.273Z,34.70
2018-11-11T20:23:17.509Z,34.30
2018-11-11T20:25:44.677Z,31.73
2018-11-11T20:28:11.923Z,30.10
2018-11-11T20:30:39.070Z,26.60
2018-11-11T20:33:06.462Z,27.87
2018-11-11T20:35:33.811Z,27.03
2018-11-11T20:38:01.236Z,29.80
2018-11-11T20:40:28.825Z,28.83
2018-11-11T20:42:56.481Z,32.30
2018-11-11T20:45:26.106Z,30.07
2018-11-11T20:47:53.270Z,31.17
2018-11-11T20:50:21.769Z,33.27
2018-11-11T20:52:50.740Z,35.87
2018-11-11T20:55:18.504Z,32.07
2018-11-11T20:57:45.681Z,33.17
2018-11-11T21:00:15.647Z,35.07
2018-11-11T21:02:42.906Z,34.20
2018-11-11T21:05:12.085Z,40.00
2018-11-11T21:07:39.731Z,40.53
2018-11-11T21:10:09.154Z,35.93
2018-11-11T21:12:36.404Z,36.07
2018-11-11T21:15:04.536Z,40.93
2018-11-11T21:17:31.726Z,38.27
2018-11-11T21:19:58.910Z,38.60
2018-11-11T21:22:26.090Z,37.17
2018-11-11T21:24:53.381Z,33.40
2018-11-11T21:27:20.625Z,36.80
2018-11-11T21:29:47.834Z,40.33
2018-11-11T21:32:15.030Z,35.23
2018-11-11T21:34:42.221Z,40.60
2018-11-11T21:37:09.458Z,41.70
2018-11-11T21:39:36.613Z,38.60
2018-11-11T21:42:04.031Z,39.97
2018-11-11T21:44:31.265Z,37.83
2018-11-11T21:46:58.378Z,39.23
2018-11-11T21:49:25.638Z,35.20
2018-11-11T21:51:52.889Z,42.33
2018-11-11T21:54:20.120Z,51.50
2018-11-11T21:56:47.295Z,35.97
2018-11-11T21:59:14.444Z,37.63
2018-11-11T22:01:41.609Z,40.07
2018-11-11T22:04:08.760Z,41.93
2018-11-11T22:06:35.968Z,43.10
2018-11-11T22:09:05.560Z,43.57
2018-11-11T22:11:32.988Z,39.90
2018-11-11T22:14:00.111Z,43.77
2018-11-11T22:16:27.571Z,39.57
2018-11-11T22:18:54.765Z,36.67
2018-11-11T22:21:22.004Z,38.83
2018-11-11T22:23:49.175Z,38.70
2018-11-11T22:26:16.330Z,29.57
2018-11-11T22:28:43.652Z,28.47
2018-11-11T22:31:10.810Z,36.60
2018-11-11T22:33:45.641Z,39.97
2018-11-11T22:36:12.948Z,45.50
2018-11-11T22:38:40.137Z,44.80
2018-11-11T22:41:07.371Z,39.73
2018-11-11T22:43:34.546Z,45.83
2018-11-11T22:46:01.728Z,45.53
2018-11-11T22:48:28.909Z,44.70
2018-11-11T22:50:56.124Z,43.83
2018-11-11T22:53:23.422Z,42.50
2018-11-11T22:55:50.726Z,41.53
2018-11-11T22:58:17.889Z,51.70
2018-11-11T23:00:51.083Z,50.47
2018-11-11T23:03:18.289Z,39.47
2018-11-11T23:05:45.642Z,33.00
2018-11-11T23:08:13.081Z,33.77
2018-11-11T23:10:40.265Z,34.87
2018-11-11T23:13:07.429Z,38.13
2018-11-11T23:15:34.557Z,41.80
2018-11-11T23:18:01.746Z,38.27
2018-11-11T23:20:28.910Z,32.20
2018-11-11T23:22:56.279Z,39.30
2018-11-11T23:25:23.496Z,34.90
2018-11-11T23:27:50.676Z,34.67
2018-11-11T23:30:19.070Z,31.67
2018-11-11T23:32:46.740Z,34.23
2018-11-11T23:35:14.026Z,38.50
2018-11-11T23:37:41.776Z,38.67
2018-11-11T23:40:10.418Z,45.00
2018-11-11T23:42:37.739Z,38.80
2018-11-11T23:45:05.225Z,38.37
2018-11-11T23:47:32.408Z,39.30
2018-11-11T23:49:59.590Z,38.93
2018-11-11T23:52:26.761Z,43.93
2018-11-11T23:54:53.937Z,42.70
2018-11-11T23:57:21.105Z,36.27
2018-11-11T23:59:48.297Z,39.10
